sensor_id;sensor_type;location;lat;lon;timestamp;pressure;altitude;pressure_sealevel;temperature;humidity
69058;BME280;56128;37.534;-122.308;2023-02-08T00:00:22;102437.84;;;16.22;51.58
69058;BME280;56128;37.534;-122.308;2023-02-08T00:02:49;102427.50;;;16.16;52.04
69058;BME280;56128;37.534;-122.308;2023-02-08T00:05:16;102430.53;;;16.12;52.65
69058;BME280;56128;37.534;-122.308;2023-02-08T00:07:43;102431.72;;;16.08;52.02
69058;BME280;56128;37.534;-122.308;2023-02-08T00:10:10;102431.94;;;16.04;52.46
69058;BME280;56128;37.534;-122.308;2023-02-08T00:12:37;102435.84;;;16.00;52.21
69058;BME280;56128;37.534;-122.308;2023-02-08T00:15:04;102442.78;;;15.92;52.56
69058;BME280;56128;37.534;-122.308;2023-02-08T00:17:30;102446.03;;;15.84;53.17
69058;BME280;56128;37.534;-122.308;2023-02-08T00:19:57;102446.19;;;15.81;53.30
69058;BME280;56128;37.534;-122.308;2023-02-08T00:22:23;102449.13;;;15.78;53.70
69058;BME280;56128;37.534;-122.308;2023-02-08T00:24:50;102450.94;;;15.77;53.99
69058;BME280;56128;37.534;-122.308;2023-02-08T00:27:16;102443.09;;;15.74;55.14
69058;BME280;56128;37.534;-122.308;2023-02-08T00:29:43;102437.91;;;15.71;55.62
69058;BME280;56128;37.534;-122.308;2023-02-08T00:32:09;102441.78;;;15.67;55.94
69058;BME280;56128;37.534;-122.308;2023-02-08T00:34:36;102444.94;;;15.61;56.34
69058;BME280;56128;37.534;-122.308;2023-02-08T00:37:04;102447.75;;;15.59;56.90
69058;BME280;56128;37.534;-122.308;2023-02-08T00:39:30;102448.16;;;15.53;57.38
69058;BME280;56128;37.534;-122.308;2023-02-08T00:41:57;102450.22;;;15.49;58.08
69058;BME280;56128;37.534;-122.308;2023-02-08T00:44:23;102445.13;;;15.45;58.25
69058;BME280;56128;37.534;-122.308;2023-02-08T00:46:49;102447.53;;;15.36;59.39
69058;BME280;56128;37.534;-122.308;2023-02-08T00:49:16;102432.44;;;15.34;59.79
69058;BME280;56128;37.534;-122.308;2023-02-08T00:51:42;102440.63;;;15.32;60.21
69058;BME280;56128;37.534;-122.308;2023-02-08T00:54:13;102442.97;;;15.24;60.93
69058;BME280;56128;37.534;-122.308;2023-02-08T00:56:40;102439.31;;;15.25;60.83
69058;BME280;56128;37.534;-122.308;2023-02-08T00:59:06;102437.16;;;15.30;60.82
69058;BME280;56128;37.534;-122.308;2023-02-08T01:01:33;102439.63;;;15.33;61.00
69058;BME280;56128;37.534;-122.308;2023-02-08T01:03:59;102442.13;;;15.36;60.95
69058;BME280;56128;37.534;-122.308;2023-02-08T01:06:25;102442.88;;;15.38;61.13
69058;BME280;56128;37.534;-122.308;2023-02-08T01:08:52;102442.66;;;15.41;61.22
69058;BME280;56128;37.534;-122.308;2023-02-08T01:11:21;102450.66;;;15.43;61.56
69058;BME280;56128;37.534;-122.308;2023-02-08T01:13:50;102447.84;;;15.45;61.47
69058;BME280;56128;37.534;-122.308;2023-02-08T01:16:30;102450.66;;;15.43;61.86
69058;BME280;56128;37.534;-122.308;2023-02-08T01:18:58;102452.25;;;15.46;61.90
69058;BME280;56128;37.534;-122.308;2023-02-08T01:21:30;102452.25;;;15.46;62.02
69058;BME280;56128;37.534;-122.308;2023-02-08T01:23:57;102445.13;;;15.45;61.91
69058;BME280;56128;37.534;-122.308;2023-02-08T01:26:24;102449.69;;;15.44;62.49
69058;BME280;56128;37.534;-122.308;2023-02-08T01:28:52;102451.53;;;15.44;63.94
69058;BME280;56128;37.534;-122.308;2023-02-08T01:31:22;102455.09;;;15.31;65.65
69058;BME280;56128;37.534;-122.308;2023-02-08T01:33:49;102453.66;;;15.25;64.77
69058;BME280;56128;37.534;-122.308;2023-02-08T01:36:16;102461.75;;;15.25;64.55
69058;BME280;56128;37.534;-122.308;2023-02-08T01:38:43;102477.06;;;15.25;64.61
69058;BME280;56128;37.534;-122.308;2023-02-08T01:46:43;102472.41;;;15.27;64.76
69058;BME280;56128;37.534;-122.308;2023-02-08T01:52:05;102489.59;;;15.26;64.70
69058;BME280;56128;37.534;-122.308;2023-02-08T01:54:37;102484.22;;;15.26;64.68
69058;BME280;56128;37.534;-122.308;2023-02-08T01:57:06;102486.97;;;15.24;64.92
69058;BME280;56128;37.534;-122.308;2023-02-08T01:59:43;102486.13;;;15.24;64.98
69058;BME280;56128;37.534;-122.308;2023-02-08T02:02:14;102481.69;;;15.23;65.36
69058;BME280;56128;37.534;-122.308;2023-02-08T02:04:41;102489.78;;;15.23;65.06
69058;BME280;56128;37.534;-122.308;2023-02-08T02:07:08;102489.13;;;15.19;65.27
69058;BME280;56128;37.534;-122.308;2023-02-08T02:09:46;102502.53;;;15.21;65.30
69058;BME280;56128;37.534;-122.308;2023-02-08T02:12:15;102509.84;;;15.19;65.58
69058;BME280;56128;37.534;-122.308;2023-02-08T02:14:42;102509.84;;;15.19;65.88
69058;BME280;56128;37.534;-122.308;2023-02-08T02:17:12;102512.66;;;15.17;65.68
69058;BME280;56128;37.534;-122.308;2023-02-08T02:19:54;102518.13;;;15.16;65.77
69058;BME280;56128;37.534;-122.308;2023-02-08T02:35:57;102528.78;;;15.04;66.48
69058;BME280;56128;37.534;-122.308;2023-02-08T02:38:46;102528.91;;;15.03;66.40
69058;BME280;56128;37.534;-122.308;2023-02-08T02:41:36;102541.59;;;15.01;66.84
69058;BME280;56128;37.534;-122.308;2023-02-08T02:45:02;102539.00;;;14.99;67.04
69058;BME280;56128;37.534;-122.308;2023-02-08T02:49:56;102542.88;;;14.95;67.00
69058;BME280;56128;37.534;-122.308;2023-02-08T02:52:33;102534.91;;;14.93;67.23
69058;BME280;56128;37.534;-122.308;2023-02-08T02:55:10;102534.13;;;14.91;67.25
69058;BME280;56128;37.534;-122.308;2023-02-08T02:57:39;102536.94;;;14.90;67.13
69058;BME280;56128;37.534;-122.308;2023-02-08T03:00:09;102542.44;;;14.88;67.55
69058;BME280;56128;37.534;-122.308;2023-02-08T03:02:37;102550.59;;;14.87;67.36
69058;BME280;56128;37.534;-122.308;2023-02-08T03:05:05;102543.50;;;14.86;67.58
69058;BME280;56128;37.534;-122.308;2023-02-08T03:10:34;102537.47;;;14.82;67.81
69058;BME280;56128;37.534;-122.308;2023-02-08T03:13:15;102540.22;;;14.81;67.65
69058;BME280;56128;37.534;-122.308;2023-02-08T03:15:54;102538.59;;;14.78;68.12
69058;BME280;56128;37.534;-122.308;2023-02-08T03:26:30;102563.25;;;14.72;68.52
69058;BME280;56128;37.534;-122.308;2023-02-08T03:29:15;102559.81;;;14.70;68.47
69058;BME280;56128;37.534;-122.308;2023-02-08T03:31:55;102568.00;;;14.68;68.43
69058;BME280;56128;37.534;-122.308;2023-02-08T03:34:55;102558.28;;;14.66;68.35
69058;BME280;56128;37.534;-122.308;2023-02-08T03:40:10;102549.59;;;14.60;68.47
69058;BME280;56128;37.534;-122.308;2023-02-08T03:42:39;102547.97;;;14.58;68.80
69058;BME280;56128;37.534;-122.308;2023-02-08T03:45:12;102545.38;;;14.56;68.81
69058;BME280;56128;37.534;-122.308;2023-02-08T03:47:43;102552.59;;;14.56;68.66
69058;BME280;56128;37.534;-122.308;2023-02-08T03:50:13;102554.41;;;14.55;68.93
69058;BME280;56128;37.534;-122.308;2023-02-08T03:52:44;102555.47;;;14.53;68.37
69058;BME280;56128;37.534;-122.308;2023-02-08T03:55:15;102541.25;;;14.51;69.06
69058;BME280;56128;37.534;-122.308;2023-02-08T04:00:16;102555.78;;;14.48;69.31
69058;BME280;56128;37.534;-122.308;2023-02-08T04:05:19;102550.69;;;14.43;69.14
69058;BME280;56128;37.534;-122.308;2023-02-08T04:07:46;102556.94;;;14.44;69.21
69058;BME280;56128;37.534;-122.308;2023-02-08T04:10:13;102558.88;;;14.42;69.26
69058;BME280;56128;37.534;-122.308;2023-02-08T04:12:39;102575.13;;;14.40;69.08
69058;BME280;56128;37.534;-122.308;2023-02-08T04:15:06;102569.84;;;14.39;69.39
69058;BME280;56128;37.534;-122.308;2023-02-08T04:17:32;102573.47;;;14.38;69.51
69058;BME280;56128;37.534;-122.308;2023-02-08T04:19:58;102575.44;;;14.36;69.57
69058;BME280;56128;37.534;-122.308;2023-02-08T04:22:25;102571.00;;;14.35;69.65
69058;BME280;56128;37.534;-122.308;2023-02-08T04:24:51;102563.97;;;14.32;69.57
69058;BME280;56128;37.534;-122.308;2023-02-08T04:27:17;102565.78;;;14.32;69.36
69058;BME280;56128;37.534;-122.308;2023-02-08T04:29:44;102565.91;;;14.30;69.74
69058;BME280;56128;37.534;-122.308;2023-02-08T04:32:10;102563.31;;;14.28;69.61
69058;BME280;56128;37.534;-122.308;2023-02-08T04:34:38;102573.28;;;14.26;69.76
69058;BME280;56128;37.534;-122.308;2023-02-08T04:37:06;102580.53;;;14.26;69.52
69058;BME280;56128;37.534;-122.308;2023-02-08T04:39:33;102582.44;;;14.24;69.56
69058;BME280;56128;37.534;-122.308;2023-02-08T04:41:59;102584.28;;;14.23;69.81
69058;BME280;56128;37.534;-122.308;2023-02-08T04:44:25;102586.09;;;14.23;69.59
69058;BME280;56128;37.534;-122.308;2023-02-08T04:46:52;102588.03;;;14.21;69.77
69058;BME280;56128;37.534;-122.308;2023-02-08T04:49:18;102591.69;;;14.20;70.21
69058;BME280;56128;37.534;-122.308;2023-02-08T04:51:44;102581.88;;;14.19;69.91
69058;BME280;56128;37.534;-122.308;2023-02-08T04:54:11;102578.38;;;14.17;69.96
69058;BME280;56128;37.534;-122.308;2023-02-08T04:56:37;102571.31;;;14.16;70.18
69058;BME280;56128;37.534;-122.308;2023-02-08T04:59:03;102573.22;;;14.13;70.20
69058;BME280;56128;37.534;-122.308;2023-02-08T05:01:29;102567.03;;;14.11;70.27
69058;BME280;56128;37.534;-122.308;2023-02-08T05:03:55;102572.44;;;14.11;70.34
69058;BME280;56128;37.534;-122.308;2023-02-08T05:06:22;102577.06;;;14.09;70.41
69058;BME280;56128;37.534;-122.308;2023-02-08T05:08:48;102569.00;;;14.09;70.14
69058;BME280;56128;37.534;-122.308;2023-02-08T05:11:21;102578.03;;;14.08;70.46
69058;BME280;56128;37.534;-122.308;2023-02-08T05:13:48;102579.06;;;14.06;70.47
69058;BME280;56128;37.534;-122.308;2023-02-08T05:16:15;102583.56;;;14.05;70.30
69058;BME280;56128;37.534;-122.308;2023-02-08T05:18:42;102588.09;;;14.05;70.28
69058;BME280;56128;37.534;-122.308;2023-02-08T05:21:09;102582.81;;;14.03;70.42
69058;BME280;56128;37.534;-122.308;2023-02-08T05:23:36;102575.81;;;14.01;70.41
69058;BME280;56128;37.534;-122.308;2023-02-08T05:26:09;102574.94;;;14.00;70.38
69058;BME280;56128;37.534;-122.308;2023-02-08T05:28:35;102586.75;;;13.98;70.67
69058;BME280;56128;37.534;-122.308;2023-02-08T05:31:14;102583.31;;;13.95;70.38
69058;BME280;56128;37.534;-122.308;2023-02-08T05:33:42;102585.22;;;13.93;70.52
69058;BME280;56128;37.534;-122.308;2023-02-08T05:36:08;102591.56;;;13.92;70.62
69058;BME280;56128;37.534;-122.308;2023-02-08T05:38:35;102589.81;;;13.91;70.71
69058;BME280;56128;37.534;-122.308;2023-02-08T05:41:01;102609.53;;;13.92;70.78
69058;BME280;56128;37.534;-122.308;2023-02-08T05:43:27;102604.25;;;13.90;70.88
69058;BME280;56128;37.534;-122.308;2023-02-08T05:45:53;102603.47;;;13.88;70.84
69058;BME280;56128;37.534;-122.308;2023-02-08T05:48:20;102603.47;;;13.88;70.65
69058;BME280;56128;37.534;-122.308;2023-02-08T05:50:46;102601.94;;;13.84;70.90
69058;BME280;56128;37.534;-122.308;2023-02-08T05:53:12;102597.59;;;13.82;70.87
69058;BME280;56128;37.534;-122.308;2023-02-08T05:55:38;102597.59;;;13.82;71.13
69058;BME280;56128;37.534;-122.308;2023-02-08T05:58:04;102609.22;;;13.82;70.80
69058;BME280;56128;37.534;-122.308;2023-02-08T06:00:31;102600.47;;;13.78;70.91
69058;BME280;56128;37.534;-122.308;2023-02-08T06:02:57;102602.22;;;13.79;71.21
69058;BME280;56128;37.534;-122.308;2023-02-08T06:05:23;102600.56;;;13.77;70.79
69058;BME280;56128;37.534;-122.308;2023-02-08T06:07:49;102597.97;;;13.75;71.03
69058;BME280;56128;37.534;-122.308;2023-02-08T06:10:16;102597.97;;;13.75;70.92
69058;BME280;56128;37.534;-122.308;2023-02-08T06:12:42;102589.91;;;13.75;71.14
69058;BME280;56128;37.534;-122.308;2023-02-08T06:15:08;102581.16;;;13.72;71.18
69058;BME280;56128;37.534;-122.308;2023-02-08T06:17:35;102590.09;;;13.72;71.39
69058;BME280;56128;37.534;-122.308;2023-02-08T06:20:01;102587.50;;;13.71;71.25
69058;BME280;56128;37.534;-122.308;2023-02-08T06:22:27;102582.22;;;13.69;71.39
69058;BME280;56128;37.534;-122.308;2023-02-08T06:24:53;102579.78;;;13.64;71.60
69058;BME280;56128;37.534;-122.308;2023-02-08T06:27:20;102579.69;;;13.66;71.22
69058;BME280;56128;37.534;-122.308;2023-02-08T06:29:46;102584.31;;;13.64;71.38
69058;BME280;56128;37.534;-122.308;2023-02-08T06:32:13;102580.75;;;13.63;71.46
69058;BME280;56128;37.534;-122.308;2023-02-08T06:34:39;102580.84;;;13.62;71.47
69058;BME280;56128;37.534;-122.308;2023-02-08T06:37:05;102577.38;;;13.60;71.44
69058;BME280;56128;37.534;-122.308;2023-02-08T06:39:31;102575.63;;;13.59;71.23
69058;BME280;56128;37.534;-122.308;2023-02-08T06:41:58;102573.91;;;13.58;71.51
69058;BME280;56128;37.534;-122.308;2023-02-08T06:44:24;102580.25;;;13.57;71.17
69058;BME280;56128;37.534;-122.308;2023-02-08T06:46:50;102571.31;;;13.56;71.31
69058;BME280;56128;37.534;-122.308;2023-02-08T06:49:17;102575.94;;;13.54;71.28
69058;BME280;56128;37.534;-122.308;2023-02-08T06:51:44;102579.72;;;13.50;71.69
69058;BME280;56128;37.534;-122.308;2023-02-08T06:54:10;102590.44;;;13.52;71.64
69058;BME280;56128;37.534;-122.308;2023-02-08T06:56:36;102586.94;;;13.50;71.47
69058;BME280;56128;37.534;-122.308;2023-02-08T06:59:02;102579.84;;;13.48;71.42
69058;BME280;56128;37.534;-122.308;2023-02-08T07:01:28;102586.16;;;13.47;71.53
69058;BME280;56128;37.534;-122.308;2023-02-08T07:03:55;102597.03;;;13.46;71.43
69058;BME280;56128;37.534;-122.308;2023-02-08T07:06:21;102592.59;;;13.45;71.64
69058;BME280;56128;37.534;-122.308;2023-02-08T07:08:47;102598.94;;;13.44;71.37
69058;BME280;56128;37.534;-122.308;2023-02-08T07:11:16;102596.31;;;13.42;71.63
69058;BME280;56128;37.534;-122.308;2023-02-08T07:13:50;102599.97;;;13.41;71.71
69058;BME280;56128;37.534;-122.308;2023-02-08T07:16:18;102611.72;;;13.40;71.71
69058;BME280;56128;37.534;-122.308;2023-02-08T07:18:45;102610.91;;;13.38;71.69
69058;BME280;56128;37.534;-122.308;2023-02-08T07:21:11;102597.53;;;13.37;71.73
69058;BME280;56128;37.534;-122.308;2023-02-08T07:23:38;102590.44;;;13.36;71.64
69058;BME280;56128;37.534;-122.308;2023-02-08T07:26:11;102584.19;;;13.35;71.85
69058;BME280;56128;37.534;-122.308;2023-02-08T07:28:39;102580.72;;;13.33;71.58
69058;BME280;56128;37.534;-122.308;2023-02-08T07:31:11;102568.22;;;13.32;71.92
69058;BME280;56128;37.534;-122.308;2023-02-08T07:33:37;102580.88;;;13.30;71.60
69058;BME280;56128;37.534;-122.308;2023-02-08T07:36:04;102588.09;;;13.29;71.77
69058;BME280;56128;37.534;-122.308;2023-02-08T07:38:31;102585.59;;;13.26;71.69
69058;BME280;56128;37.534;-122.308;2023-02-08T07:41:06;102587.41;;;13.26;71.79
69058;BME280;56128;37.534;-122.308;2023-02-08T07:43:37;102588.34;;;13.25;72.05
69058;BME280;56128;37.534;-122.308;2023-02-08T07:46:10;102578.56;;;13.24;71.80
69058;BME280;56128;37.534;-122.308;2023-02-08T07:48:37;102580.47;;;13.22;72.00
69058;BME280;56128;37.534;-122.308;2023-02-08T07:51:04;102588.72;;;13.19;71.78
69058;BME280;56128;37.534;-122.308;2023-02-08T07:53:30;102598.41;;;13.21;72.00
69058;BME280;56128;37.534;-122.308;2023-02-08T07:55:57;102606.56;;;13.20;72.04
69058;BME280;56128;37.534;-122.308;2023-02-08T07:58:23;102604.84;;;13.19;71.75
69058;BME280;56128;37.534;-122.308;2023-02-08T08:00:50;102613.88;;;13.18;72.12
69058;BME280;56128;37.534;-122.308;2023-02-08T08:03:16;102610.41;;;13.15;71.74
69058;BME280;56128;37.534;-122.308;2023-02-08T08:05:43;102619.41;;;13.14;71.82
69058;BME280;56128;37.534;-122.308;2023-02-08T08:08:10;102625.75;;;13.13;71.77
69058;BME280;56128;37.534;-122.308;2023-02-08T08:10:36;102620.47;;;13.12;72.01
69058;BME280;56128;37.534;-122.308;2023-02-08T08:13:03;102613.34;;;13.11;71.97
69058;BME280;56128;37.534;-122.308;2023-02-08T08:15:30;102612.59;;;13.09;72.08
69058;BME280;56128;37.534;-122.308;2023-02-08T08:17:56;102609.22;;;13.05;71.69
69058;BME280;56128;37.534;-122.308;2023-02-08T08:20:23;102609.97;;;13.07;71.96
69058;BME280;56128;37.534;-122.308;2023-02-08T08:22:50;102600.16;;;13.06;71.91
69058;BME280;56128;37.534;-122.308;2023-02-08T08:25:16;102596.72;;;13.04;72.17
69058;BME280;56128;37.534;-122.308;2023-02-08T08:27:42;102591.44;;;13.03;72.06
69058;BME280;56128;37.534;-122.308;2023-02-08T08:30:11;102588.75;;;13.03;71.98
69058;BME280;56128;37.534;-122.308;2023-02-08T08:32:38;102580.75;;;13.01;71.96
69058;BME280;56128;37.534;-122.308;2023-02-08T08:35:05;102579.91;;;13.01;72.05
69058;BME280;56128;37.534;-122.308;2023-02-08T08:37:33;102574.69;;;12.97;72.04
69058;BME280;56128;37.534;-122.308;2023-02-08T08:39:59;102573.00;;;12.96;72.33
69058;BME280;56128;37.534;-122.308;2023-02-08T08:42:25;102572.09;;;12.96;72.11
69058;BME280;56128;37.534;-122.308;2023-02-08T08:44:52;102562.31;;;12.95;72.10
69058;BME280;56128;37.534;-122.308;2023-02-08T08:47:19;102564.22;;;12.93;71.96
69058;BME280;56128;37.534;-122.308;2023-02-08T08:49:45;102566.91;;;12.93;72.13
69058;BME280;56128;37.534;-122.308;2023-02-08T08:52:12;102566.13;;;12.91;72.03
69058;BME280;56128;37.534;-122.308;2023-02-08T08:54:38;102556.31;;;12.90;72.05
69058;BME280;56128;37.534;-122.308;2023-02-08T08:57:05;102560.94;;;12.88;71.99
69058;BME280;56128;37.534;-122.308;2023-02-08T08:59:31;102564.47;;;12.88;72.12
69058;BME280;56128;37.534;-122.308;2023-02-08T09:01:58;102567.25;;;12.87;72.20
69058;BME280;56128;37.534;-122.308;2023-02-08T09:04:25;102554.88;;;12.84;72.10
69058;BME280;56128;37.534;-122.308;2023-02-08T09:06:52;102556.69;;;12.83;72.28
69058;BME280;56128;37.534;-122.308;2023-02-08T09:09:19;102558.50;;;12.83;72.10
69058;BME280;56128;37.534;-122.308;2023-02-08T09:11:46;102553.25;;;12.81;72.20
69058;BME280;56128;37.534;-122.308;2023-02-08T09:14:13;102551.50;;;12.80;72.11
69058;BME280;56128;37.534;-122.308;2023-02-08T09:16:41;102558.69;;;12.80;72.09
69058;BME280;56128;37.534;-122.308;2023-02-08T09:19:09;102549.06;;;12.76;72.24
69058;BME280;56128;37.534;-122.308;2023-02-08T09:21:35;102559.72;;;12.77;72.19
69058;BME280;56128;37.534;-122.308;2023-02-08T09:24:02;102552.03;;;12.71;71.91
69058;BME280;56128;37.534;-122.308;2023-02-08T09:26:29;102564.31;;;12.75;72.26
69058;BME280;56128;37.534;-122.308;2023-02-08T09:28:55;102566.22;;;12.73;72.24
69058;BME280;56128;37.534;-122.308;2023-02-08T09:31:24;102570.84;;;12.71;72.15
69058;BME280;56128;37.534;-122.308;2023-02-08T09:33:52;102572.63;;;12.71;72.16
69058;BME280;56128;37.534;-122.308;2023-02-08T09:36:20;102566.41;;;12.70;72.24
69058;BME280;56128;37.534;-122.308;2023-02-08T09:38:49;102570.03;;;12.69;72.25
69058;BME280;56128;37.534;-122.308;2023-02-08T09:44:09;102556.72;;;12.68;72.35
69058;BME280;56128;37.534;-122.308;2023-02-08T09:46:47;102545.19;;;12.65;72.35
69058;BME280;56128;37.534;-122.308;2023-02-08T09:49:19;102539.91;;;12.64;72.41
69058;BME280;56128;37.534;-122.308;2023-02-08T09:52:00;102540.84;;;12.63;72.32
69058;BME280;56128;37.534;-122.308;2023-02-08T09:54:36;102537.38;;;12.61;72.52
69058;BME280;56128;37.534;-122.308;2023-02-08T09:57:05;102538.31;;;12.60;72.42
69058;BME280;56128;37.534;-122.308;2023-02-08T09:59:35;102545.53;;;12.59;72.45
69058;BME280;56128;37.534;-122.308;2023-02-08T10:02:16;102543.78;;;12.58;72.26
69058;BME280;56128;37.534;-122.308;2023-02-08T10:05:07;102529.59;;;12.56;72.37
69058;BME280;56128;37.534;-122.308;2023-02-08T10:07:35;102529.66;;;12.55;72.36
69058;BME280;56128;37.534;-122.308;2023-02-08T10:10:05;102514.53;;;12.54;72.35
69058;BME280;56128;37.534;-122.308;2023-02-08T10:15:23;102517.28;;;12.52;72.28
69058;BME280;56128;37.534;-122.308;2023-02-08T10:23:51;102517.47;;;12.49;72.45
69058;BME280;56128;37.534;-122.308;2023-02-08T10:26:43;102522.94;;;12.47;72.54
69058;BME280;56128;37.534;-122.308;2023-02-08T10:34:53;102526.72;;;12.43;72.52
69058;BME280;56128;37.534;-122.308;2023-02-08T10:37:30;102517.91;;;12.41;72.59
69058;BME280;56128;37.534;-122.308;2023-02-08T10:40:26;102523.31;;;12.40;72.30
69058;BME280;56128;37.534;-122.308;2023-02-08T10:43:04;102523.41;;;12.38;72.54
69058;BME280;56128;37.534;-122.308;2023-02-08T10:45:44;102531.47;;;12.38;72.61
69058;BME280;56128;37.534;-122.308;2023-02-08T10:48:19;102531.56;;;12.37;72.76
69058;BME280;56128;37.534;-122.308;2023-02-08T10:50:48;102536.09;;;12.36;72.58
69058;BME280;56128;37.534;-122.308;2023-02-08T10:53:16;102543.34;;;12.34;72.67
69058;BME280;56128;37.534;-122.308;2023-02-08T10:55:45;102543.34;;;12.34;72.55
69058;BME280;56128;37.534;-122.308;2023-02-08T10:58:18;102548.81;;;12.32;72.80
69058;BME280;56128;37.534;-122.308;2023-02-08T11:00:45;102543.44;;;12.32;72.64
69058;BME280;56128;37.534;-122.308;2023-02-08T11:03:30;102547.06;;;12.31;72.69
69058;BME280;56128;37.534;-122.308;2023-02-08T11:05:57;102542.72;;;12.29;72.64
69058;BME280;56128;37.534;-122.308;2023-02-08T11:08:25;102546.38;;;12.28;72.77
69058;BME280;56128;37.534;-122.308;2023-02-08T11:11:08;102544.63;;;12.27;72.79
69058;BME280;56128;37.534;-122.308;2023-02-08T11:13:43;102546.47;;;12.26;72.75
69058;BME280;56128;37.534;-122.308;2023-02-08T11:16:21;102532.16;;;12.26;72.87
69058;BME280;56128;37.534;-122.308;2023-02-08T11:18:57;102526.88;;;12.24;72.60
69058;BME280;56128;37.534;-122.308;2023-02-08T11:21:28;102526.97;;;12.23;72.74
69058;BME280;56128;37.534;-122.308;2023-02-08T11:24:00;102524.28;;;12.23;72.79
69058;BME280;56128;37.534;-122.308;2023-02-08T11:31:27;102519.06;;;12.20;73.08
69058;BME280;56128;37.534;-122.308;2023-02-08T11:34:01;102522.72;;;12.18;72.53
69058;BME280;56128;37.534;-122.308;2023-02-08T11:36:28;102523.69;;;12.17;72.66
69058;BME280;56128;37.534;-122.308;2023-02-08T11:38:56;102521.09;;;12.16;73.13
69058;BME280;56128;37.534;-122.308;2023-02-08T11:41:23;102523.75;;;12.16;72.86
69058;BME280;56128;37.534;-122.308;2023-02-08T11:43:57;102519.41;;;12.13;72.78
69058;BME280;56128;37.534;-122.308;2023-02-08T11:46:27;102529.28;;;12.13;72.67
69058;BME280;56128;37.534;-122.308;2023-02-08T11:48:55;102524.84;;;12.12;72.86
69058;BME280;56128;37.534;-122.308;2023-02-08T11:51:31;102514.22;;;12.10;72.66
69058;BME280;56128;37.534;-122.308;2023-02-08T11:53:59;102517.84;;;12.09;72.60
69058;BME280;56128;37.534;-122.308;2023-02-08T11:56:33;102508.16;;;12.07;72.74
69058;BME280;56128;37.534;-122.308;2023-02-08T11:59:18;102512.56;;;12.08;72.77
69058;BME280;56128;37.534;-122.308;2023-02-08T12:01:46;102512.66;;;12.06;72.90
69058;BME280;56128;37.534;-122.308;2023-02-08T12:04:14;102510.91;;;12.05;72.80
69058;BME280;56128;37.534;-122.308;2023-02-08T12:07:19;102510.03;;;12.05;73.03
69058;BME280;56128;37.534;-122.308;2023-02-08T12:10:35;102509.19;;;12.04;72.91
69058;BME280;56128;37.534;-122.308;2023-02-08T12:13:17;102515.59;;;12.01;72.49
69058;BME280;56128;37.534;-122.308;2023-02-08T12:16:10;102504.16;;;11.98;72.81
69058;BME280;56128;37.534;-122.308;2023-02-08T12:21:46;102517.56;;;11.98;72.89
69058;BME280;56128;37.534;-122.308;2023-02-08T12:24:43;102522.16;;;11.96;72.70
69058;BME280;56128;37.534;-122.308;2023-02-08T12:38:25;102542.09;;;11.90;72.72
69058;BME280;56128;37.534;-122.308;2023-02-08T12:41:21;102550.22;;;11.89;72.63
69058;BME280;56128;37.534;-122.308;2023-02-08T12:55:28;102568.28;;;11.85;72.76
69058;BME280;56128;37.534;-122.308;2023-02-08T13:00:46;102572.09;;;11.81;72.63
69058;BME280;56128;37.534;-122.308;2023-02-08T13:06:03;102574.84;;;11.79;72.88
69058;BME280;56128;37.534;-122.308;2023-02-08T13:11:23;102580.28;;;11.78;72.89
69058;BME280;56128;37.534;-122.308;2023-02-08T13:14:07;102576.75;;;11.77;72.72
69058;BME280;56128;37.534;-122.308;2023-02-08T13:16:43;102580.38;;;11.76;72.89
69058;BME280;56128;37.534;-122.308;2023-02-08T13:21:51;102587.63;;;11.74;72.72
69058;BME280;56128;37.534;-122.308;2023-02-08T13:24:30;102584.19;;;11.72;72.92
69058;BME280;56128;37.534;-122.308;2023-02-08T13:26:59;102579.75;;;11.71;72.89
69058;BME280;56128;37.534;-122.308;2023-02-08T13:29:26;102578.81;;;11.72;72.56
69058;BME280;56128;37.534;-122.308;2023-02-08T13:32:03;102578.00;;;11.70;72.50
69058;BME280;56128;37.534;-122.308;2023-02-08T13:34:51;102583.38;;;11.70;72.91
69058;BME280;56128;37.534;-122.308;2023-02-08T13:37:24;102581.63;;;11.69;73.05
69058;BME280;56128;37.534;-122.308;2023-02-08T13:40:04;102577.22;;;11.68;72.46
69058;BME280;56128;37.534;-122.308;2023-02-08T13:42:40;102581.81;;;11.66;72.92
69058;BME280;56128;37.534;-122.308;2023-02-08T13:45:10;102586.19;;;11.67;73.06
69058;BME280;56128;37.534;-122.308;2023-02-08T13:47:49;102588.88;;;11.67;72.58
69058;BME280;56128;37.534;-122.308;2023-02-08T13:50:38;102588.13;;;11.65;72.80
69058;BME280;56128;37.534;-122.308;2023-02-08T13:53:05;102587.22;;;11.64;73.33
69058;BME280;56128;37.534;-122.308;2023-02-08T13:58:01;102594.59;;;11.61;73.06
69058;BME280;56128;37.534;-122.308;2023-02-08T14:00:30;102596.28;;;11.62;73.07
69058;BME280;56128;37.534;-122.308;2023-02-08T14:11:14;102612.47;;;11.60;72.94
69058;BME280;56128;37.534;-122.308;2023-02-08T14:14:02;102611.63;;;11.60;72.85
69058;BME280;56128;37.534;-122.308;2023-02-08T14:16:38;102609.97;;;11.57;72.88
69058;BME280;56128;37.534;-122.308;2023-02-08T14:19:22;102607.28;;;11.57;73.10
69058;BME280;56128;37.534;-122.308;2023-02-08T14:22:02;102616.25;;;11.56;73.25
69058;BME280;56128;37.534;-122.308;2023-02-08T14:24:44;102615.38;;;11.56;73.12
69058;BME280;56128;37.534;-122.308;2023-02-08T14:27:24;102619.03;;;11.55;73.13
69058;BME280;56128;37.534;-122.308;2023-02-08T14:32:38;102623.50;;;11.54;73.02